Terminal Aerodrome Forecast
Issued by NWS

Home | Current Version | Previous Version | Text Only | Print | Product List | Glossary On
Versions: 1 2 3 4 5 6 7 8 9 10 11 12 13 14 15 16 17 18 19 20
000
FTUS46 KOTX 201740
TAFMWH
TAF
KMWH 201740Z 2018/2118 36007KT P6SM BKN080 BKN110
     FM202000 23007KT P6SM VCSH BKN060 BKN100
     FM210100 24006KT P6SM SCT060
     FM210600 30005KT P6SM FEW080=

USA.gov is the U.S. government's official web portal to all federal, state and local government web resources and services.